createdAt,value
2023-10-01T00:01:03.750Z,0.70
2023-10-01T00:03:30.565Z,0.52
2023-10-01T00:05:57.470Z,0.37
2023-10-01T00:08:24.260Z,0.68
2023-10-01T00:10:51.019Z,0.64
2023-10-01T00:13:17.921Z,0.85
2023-10-01T00:15:45.012Z,0.97
2023-10-01T00:18:12.066Z,0.81
2023-10-01T00:20:39.581Z,0.22
2023-10-01T00:23:07.389Z,0.46
2023-10-01T00:25:36.367Z,0.67
2023-10-01T00:28:06.004Z,0.76
2023-10-01T00:30:34.610Z,0.69
2023-10-01T00:33:07.848Z,0.61
2023-10-01T00:35:38.784Z,0.58
2023-10-01T00:38:06.736Z,0.59
2023-10-01T00:40:33.533Z,0.59
2023-10-01T00:43:03.887Z,0.38
2023-10-01T00:45:31.649Z,0.54
2023-10-01T00:48:04.465Z,0.45
2023-10-01T00:50:32.203Z,0.50
2023-10-01T00:53:00.060Z,0.28
2023-10-01T00:55:30.256Z,0.24
2023-10-01T00:57:57.781Z,0.36
2023-10-01T01:00:27.105Z,0.13
2023-10-01T01:03:06.446Z,0.36
2023-10-01T01:05:36.680Z,0.37
2023-10-01T01:08:05.987Z,0.43
2023-10-01T01:10:40.465Z,0.41
2023-10-01T01:13:08.426Z,0.45
2023-10-01T01:15:40.172Z,0.49
2023-10-01T01:18:15.019Z,0.29
2023-10-01T01:20:46.445Z,0.30
2023-10-01T01:23:22.535Z,0.32
2023-10-01T01:25:53.587Z,-0.13
2023-10-01T01:28:32.227Z,0.00
2023-10-01T01:31:00.821Z,-0.25
2023-10-01T01:33:33.876Z,-0.40
2023-10-01T01:36:01.281Z,-0.53
2023-10-01T01:38:28.873Z,-0.49
2023-10-01T01:40:57.125Z,-0.41
2023-10-01T01:43:24.284Z,-0.43
2023-10-01T01:45:57.307Z,-0.30
2023-10-01T01:48:31.820Z,-0.22
2023-10-01T01:51:01.586Z,-0.32
2023-10-01T01:53:36.506Z,-0.54
2023-10-01T01:56:11.834Z,-0.52
2023-10-01T01:58:41.524Z,-0.50
2023-10-01T02:01:14.641Z,-0.37
2023-10-01T02:03:47.862Z,-0.05
2023-10-01T02:06:16.606Z,-0.35
2023-10-01T02:09:01.137Z,-0.49
2023-10-01T02:11:34.429Z,-0.43
2023-10-01T02:14:03.662Z,-0.46
2023-10-01T02:16:37.237Z,-0.30
2023-10-01T02:19:13.436Z,-0.49
2023-10-01T02:21:51.325Z,-0.75
2023-10-01T02:24:39.181Z,-0.33
2023-10-01T02:27:07.207Z,-0.72
2023-10-01T02:29:46.825Z,-0.51
2023-10-01T02:32:16.108Z,-0.73
2023-10-01T02:34:44.386Z,-0.56
2023-10-01T02:37:12.081Z,-0.48
2023-10-01T02:39:39.118Z,-0.65
2023-10-01T02:42:06.108Z,-0.72
2023-10-01T02:44:33.500Z,-0.69
2023-10-01T02:47:10.595Z,-0.78
2023-10-01T02:49:48.861Z,-0.77
2023-10-01T02:52:19.939Z,-0.64
2023-10-01T02:54:55.792Z,-0.66
2023-10-01T02:57:25.849Z,-0.90
2023-10-01T03:00:13.512Z,-1.18
2023-10-01T03:02:43.114Z,-1.02
2023-10-01T03:05:19.968Z,-1.16
2023-10-01T03:07:52.061Z,-1.18
2023-10-01T03:10:26.924Z,-1.06
2023-10-01T03:12:54.977Z,-0.97
2023-10-01T03:15:36.397Z,-0.88
2023-10-01T03:18:22.647Z,-0.93
2023-10-01T03:20:49.570Z,-0.97
2023-10-01T03:23:24.088Z,-1.29
2023-10-01T03:26:04.684Z,-1.37
2023-10-01T03:28:36.479Z,-1.41
2023-10-01T03:31:10.391Z,-1.00
2023-10-01T03:33:39.494Z,-1.41
2023-10-01T03:36:11.570Z,-1.40
2023-10-01T03:38:46.467Z,-1.52
2023-10-01T03:41:22.714Z,-1.33
2023-10-01T03:43:52.022Z,-1.67
2023-10-01T03:46:25.084Z,-1.94
2023-10-01T03:49:10.692Z,-1.71
2023-10-01T03:52:16.405Z,-1.42
2023-10-01T03:55:01.976Z,-1.50
2023-10-01T03:57:30.616Z,-1.57
2023-10-01T04:00:11.316Z,-1.61
2023-10-01T04:02:47.902Z,-1.64
2023-10-01T04:05:31.817Z,-1.57
2023-10-01T04:08:13.318Z,-1.75
2023-10-01T04:10:41.173Z,-1.30
2023-10-01T04:13:22.244Z,-1.70
2023-10-01T04:16:09.149Z,-1.39
2023-10-01T04:18:43.145Z,-1.58
2023-10-01T04:21:10.164Z,-1.42
2023-10-01T04:23:50.823Z,-1.55
2023-10-01T04:26:18.731Z,-1.66
2023-10-01T04:28:48.655Z,-1.54
2023-10-01T04:31:21.122Z,-1.72
2023-10-01T04:33:51.822Z,-1.53
2023-10-01T04:36:20.636Z,-1.42
2023-10-01T04:39:01.481Z,-1.57
2023-10-01T04:41:28.582Z,-1.33
2023-10-01T04:44:01.178Z,-1.19
2023-10-01T04:46:31.540Z,-1.39
2023-10-01T04:48:59.185Z,-1.31
2023-10-01T04:51:45.750Z,-1.50
2023-10-01T04:54:19.305Z,-1.52
2023-10-01T04:56:49.504Z,-1.59
2023-10-01T04:59:22.604Z,-1.47
2023-10-01T05:01:49.486Z,-1.79
2023-10-01T05:04:16.630Z,-1.48
2023-10-01T05:06:44.685Z,-1.43
2023-10-01T05:09:15.879Z,-1.43
2023-10-01T05:11:44.905Z,-1.48
2023-10-01T05:14:13.497Z,-1.42
2023-10-01T05:16:41.078Z,-1.56
2023-10-01T05:19:11.937Z,-1.56
2023-10-01T05:21:48.415Z,-1.48
2023-10-01T05:24:35.517Z,-1.41
2023-10-01T05:27:04.229Z,-1.89
2023-10-01T05:29:32.448Z,-1.59
2023-10-01T05:32:00.436Z,-1.43
2023-10-01T05:34:27.372Z,-1.68
2023-10-01T05:36:54.193Z,-1.52
2023-10-01T05:39:24.363Z,-1.42
2023-10-01T05:41:54.167Z,-1.21
2023-10-01T05:44:22.766Z,-0.98
2023-10-01T05:46:50.416Z,-1.00
2023-10-01T05:49:18.726Z,-1.03
2023-10-01T05:51:46.592Z,-1.43
2023-10-01T05:54:23.506Z,-1.16
2023-10-01T05:56:50.722Z,-0.86
2023-10-01T05:59:21.906Z,-0.48
2023-10-01T06:01:49.691Z,-0.16
2023-10-01T06:04:19.651Z,-0.07
2023-10-01T06:06:47.522Z,0.04
2023-10-01T06:09:17.226Z,-0.07
2023-10-01T06:11:50.288Z,-0.18
2023-10-01T06:14:36.290Z,-0.28
2023-10-01T06:17:03.694Z,-0.12
2023-10-01T06:19:35.050Z,0.09
2023-10-01T06:22:15.420Z,0.59
2023-10-01T06:24:44.635Z,1.42
2023-10-01T06:27:19.334Z,1.72
2023-10-01T06:29:53.340Z,0.63
2023-10-01T06:32:24.825Z,0.86
2023-10-01T06:34:55.247Z,0.81
2023-10-01T06:37:22.180Z,0.80
2023-10-01T06:39:49.242Z,1.29
2023-10-01T06:42:25.476Z,0.73
2023-10-01T06:44:56.184Z,0.94
2023-10-01T06:47:24.954Z,1.49
2023-10-01T06:50:13.970Z,2.03
2023-10-01T06:52:44.150Z,1.81
2023-10-01T06:55:27.192Z,1.34
2023-10-01T06:57:56.451Z,1.94
2023-10-01T07:00:23.922Z,2.40
2023-10-01T07:02:51.129Z,2.72
2023-10-01T07:05:27.309Z,2.74
2023-10-01T07:07:54.121Z,3.02
2023-10-01T07:10:21.758Z,2.97
2023-10-01T07:13:06.132Z,2.88
2023-10-01T07:15:41.078Z,2.84
2023-10-01T07:18:21.029Z,2.64
2023-10-01T07:20:51.016Z,2.99
2023-10-01T07:23:23.184Z,4.27
2023-10-01T07:25:58.574Z,3.69
2023-10-01T07:28:26.395Z,3.64
2023-10-01T07:30:57.516Z,3.76
2023-10-01T07:33:24.551Z,4.10
2023-10-01T07:36:01.569Z,4.30
2023-10-01T07:38:30.427Z,4.61
2023-10-01T07:41:00.263Z,4.78
2023-10-01T07:43:32.252Z,5.20
2023-10-01T07:46:02.921Z,5.65
2023-10-01T07:48:30.621Z,6.51
2023-10-01T07:50:59.441Z,6.84
2023-10-01T07:53:34.194Z,7.90
2023-10-01T07:56:08.230Z,7.46
2023-10-01T07:58:52.435Z,7.26
2023-10-01T08:01:38.324Z,7.31
2023-10-01T08:04:24.476Z,8.13
2023-10-01T08:06:51.316Z,9.05
2023-10-01T08:09:18.430Z,9.97
2023-10-01T08:11:59.707Z,9.90
2023-10-01T08:14:34.834Z,10.02
2023-10-01T08:17:03.470Z,10.39
2023-10-01T08:19:46.129Z,10.44
2023-10-01T08:22:15.263Z,9.85
2023-10-01T08:24:46.999Z,10.50
2023-10-01T08:27:14.622Z,9.73
2023-10-01T08:30:00.312Z,9.68
2023-10-01T08:32:39.630Z,10.09
2023-10-01T08:35:08.156Z,9.77
2023-10-01T08:37:39.116Z,11.14
2023-10-01T08:40:15.733Z,11.21
2023-10-01T08:42:52.081Z,11.32
2023-10-01T08:45:20.606Z,11.71
2023-10-01T08:47:49.404Z,11.40
2023-10-01T08:50:29.588Z,11.18
2023-10-01T08:52:58.765Z,10.97
2023-10-01T08:55:38.317Z,11.72
2023-10-01T08:58:17.218Z,12.15
2023-10-01T09:00:50.065Z,11.68
2023-10-01T09:03:31.215Z,11.95
2023-10-01T09:06:04.570Z,11.91
2023-10-01T09:08:33.199Z,10.91
2023-10-01T09:11:02.126Z,9.64
2023-10-01T09:13:32.150Z,9.80
2023-10-01T09:16:12.157Z,10.65
2023-10-01T09:19:27.430Z,9.95
2023-10-01T09:21:56.213Z,11.61
2023-10-01T09:24:40.765Z,12.56
2023-10-01T09:27:20.955Z,12.37
2023-10-01T09:29:50.271Z,12.68
2023-10-01T09:32:21.389Z,11.97
2023-10-01T09:34:58.402Z,13.92
2023-10-01T09:37:44.406Z,13.29
2023-10-01T09:40:34.927Z,12.14
2023-10-01T09:43:04.529Z,13.19
2023-10-01T09:45:39.979Z,11.37
2023-10-01T09:48:10.808Z,11.31
2023-10-01T09:50:45.819Z,10.23
2023-10-01T09:53:25.445Z,12.42
2023-10-01T09:55:57.125Z,14.58
2023-10-01T09:58:31.190Z,13.98
2023-10-01T10:01:10.019Z,13.74
2023-10-01T10:03:37.635Z,13.87
2023-10-01T10:06:11.884Z,12.75
2023-10-01T10:08:41.206Z,12.64
2023-10-01T10:11:25.382Z,13.27
2023-10-01T10:13:59.228Z,13.96
2023-10-01T10:16:35.230Z,14.09
2023-10-01T10:19:17.667Z,14.63
2023-10-01T10:22:02.492Z,13.09
2023-10-01T10:24:37.534Z,14.77
2023-10-01T10:27:09.924Z,14.85
2023-10-01T10:29:58.667Z,13.86
2023-10-01T10:32:32.459Z,14.81
2023-10-01T10:35:05.653Z,14.78
2023-10-01T10:37:39.142Z,15.04
2023-10-01T10:40:19.302Z,15.38
2023-10-01T10:42:59.439Z,13.76
2023-10-01T10:45:43.638Z,13.98
2023-10-01T10:48:12.606Z,15.91
2023-10-01T10:51:12.742Z,14.75
2023-10-01T10:53:44.280Z,14.82
2023-10-01T10:56:15.103Z,13.31
2023-10-01T10:58:44.645Z,14.86
2023-10-01T11:01:17.513Z,15.20
2023-10-01T11:03:49.263Z,15.07
2023-10-01T11:06:23.563Z,14.56
2023-10-01T11:08:51.737Z,14.31
2023-10-01T11:14:03.941Z,15.73
2023-10-01T11:16:40.784Z,14.34
2023-10-01T11:19:15.000Z,14.56
2023-10-01T11:22:01.581Z,15.33
2023-10-01T11:24:31.353Z,16.11
2023-10-01T11:27:16.300Z,15.25
2023-10-01T11:29:44.778Z,15.29
2023-10-01T11:32:18.242Z,15.44
2023-10-01T11:34:57.268Z,14.88
2023-10-01T11:37:29.286Z,16.27
2023-10-01T11:39:56.159Z,15.61
2023-10-01T11:42:39.958Z,14.89
2023-10-01T11:45:46.839Z,15.48
2023-10-01T11:48:21.077Z,15.31
2023-10-01T11:50:56.870Z,16.43
2023-10-01T11:53:29.835Z,16.41
2023-10-01T11:56:02.987Z,14.60
2023-10-01T11:58:30.599Z,15.55
2023-10-01T12:01:00.857Z,16.67
2023-10-01T12:03:30.279Z,15.09
2023-10-01T12:05:57.918Z,14.70
2023-10-01T12:08:45.522Z,14.84
2023-10-01T12:11:41.473Z,15.79
2023-10-01T12:14:10.032Z,16.73
2023-10-01T12:16:41.081Z,16.79
2023-10-01T12:19:26.119Z,16.54
2023-10-01T12:22:08.718Z,16.04
2023-10-01T12:24:41.758Z,15.48
2023-10-01T12:27:09.306Z,16.89
2023-10-01T12:29:44.871Z,15.68
2023-10-01T12:32:12.486Z,16.40
2023-10-01T12:34:40.919Z,15.24
2023-10-01T12:37:30.479Z,14.26
2023-10-01T12:40:16.072Z,16.17
2023-10-01T12:42:47.419Z,16.13
2023-10-01T12:45:20.701Z,15.90
2023-10-01T12:47:54.034Z,16.13
2023-10-01T12:50:29.820Z,16.26
2023-10-01T12:53:16.146Z,16.15
2023-10-01T12:55:53.303Z,15.90
2023-10-01T12:58:31.143Z,14.85
2023-10-01T13:00:58.676Z,15.49
2023-10-01T13:03:26.076Z,15.46
2023-10-01T13:05:54.600Z,16.53
2023-10-01T13:08:30.341Z,15.79
2023-10-01T13:11:00.132Z,15.00
2023-10-01T13:13:37.028Z,15.44
2023-10-01T13:16:04.225Z,15.51
2023-10-01T13:18:31.105Z,15.69
2023-10-01T13:20:58.861Z,14.69
2023-10-01T13:23:26.383Z,14.46
2023-10-01T13:26:16.327Z,14.73
2023-10-01T13:29:01.609Z,15.44
2023-10-01T13:31:30.102Z,14.71
2023-10-01T13:34:21.378Z,15.21
2023-10-01T13:37:12.335Z,15.24
2023-10-01T13:39:39.594Z,15.53
2023-10-01T13:42:25.911Z,15.49
2023-10-01T13:45:11.794Z,14.98
2023-10-01T13:47:57.289Z,14.84
2023-10-01T13:50:42.916Z,15.60
2023-10-01T13:53:28.104Z,15.63
2023-10-01T13:56:13.461Z,16.06
2023-10-01T13:58:58.864Z,15.20
2023-10-01T14:01:44.678Z,15.66
2023-10-01T14:04:30.088Z,15.62
2023-10-01T14:07:15.417Z,15.42
2023-10-01T14:09:49.559Z,14.68
2023-10-01T14:12:36.751Z,14.16
2023-10-01T14:15:06.042Z,13.49
2023-10-01T14:17:34.197Z,14.29
2023-10-01T14:20:01.242Z,14.70
2023-10-01T14:22:30.648Z,14.40
2023-10-01T14:24:57.502Z,14.01
2023-10-01T14:27:30.613Z,13.65
2023-10-01T14:30:03.442Z,14.50
2023-10-01T14:32:36.243Z,12.83
2023-10-01T14:35:15.570Z,12.27
2023-10-01T14:37:55.726Z,12.56
2023-10-01T14:40:24.780Z,13.38
2023-10-01T14:43:00.247Z,13.10
2023-10-01T14:45:43.807Z,13.22
2023-10-01T14:48:10.673Z,13.10
2023-10-01T14:50:41.621Z,12.73
2023-10-01T14:53:15.582Z,13.32
2023-10-01T14:55:42.636Z,12.60
2023-10-01T14:58:14.775Z,11.35
2023-10-01T15:00:53.515Z,11.84
2023-10-01T15:03:21.598Z,11.69
2023-10-01T15:05:48.677Z,12.37
2023-10-01T15:08:16.884Z,11.64
2023-10-01T15:10:53.749Z,11.15
2023-10-01T15:13:34.791Z,11.18
2023-10-01T15:16:05.491Z,11.04
2023-10-01T15:18:41.853Z,11.06
2023-10-01T15:21:23.846Z,10.75
2023-10-01T15:24:00.410Z,10.42
2023-10-01T15:26:30.384Z,10.14
2023-10-01T15:28:58.716Z,9.54
2023-10-01T15:31:34.441Z,9.27
2023-10-01T15:34:16.985Z,8.63
2023-10-01T15:36:46.793Z,8.41
2023-10-01T15:39:33.561Z,8.56
2023-10-01T15:42:15.907Z,8.33
2023-10-01T15:44:50.241Z,7.92
2023-10-01T15:47:49.535Z,7.76
2023-10-01T15:50:22.708Z,8.05
2023-10-01T15:52:52.515Z,8.05
2023-10-01T15:55:33.127Z,8.16
2023-10-01T15:58:04.756Z,7.82
2023-10-01T16:00:35.763Z,7.37
2023-10-01T16:03:09.180Z,7.36
2023-10-01T16:05:42.297Z,7.56
2023-10-01T16:08:21.588Z,7.50
2023-10-01T16:10:52.921Z,7.42
2023-10-01T16:13:29.380Z,7.01
2023-10-01T16:16:11.287Z,6.98
2023-10-01T16:18:46.197Z,6.95
2023-10-01T16:21:19.564Z,6.88
2023-10-01T16:23:57.114Z,6.58
2023-10-01T16:26:25.840Z,6.42
2023-10-01T16:28:54.745Z,6.44
2023-10-01T16:31:22.908Z,6.55
2023-10-01T16:33:53.515Z,6.22
2023-10-01T16:36:27.555Z,6.51
2023-10-01T16:38:56.467Z,6.25
2023-10-01T16:41:26.163Z,6.57
2023-10-01T16:43:53.939Z,6.16
2023-10-01T16:46:22.327Z,6.03
2023-10-01T16:48:50.567Z,5.65
2023-10-01T16:51:18.106Z,5.80
2023-10-01T16:53:46.654Z,5.50
2023-10-01T16:56:25.688Z,5.38
2023-10-01T16:58:58.315Z,5.42
2023-10-01T17:01:28.083Z,5.25
2023-10-01T17:04:04.541Z,5.22
2023-10-01T17:06:33.678Z,5.48
2023-10-01T17:09:07.065Z,5.33
2023-10-01T17:11:34.926Z,5.51
2023-10-01T17:14:12.519Z,5.68
2023-10-01T17:16:47.448Z,5.31
2023-10-01T17:19:16.065Z,5.08
2023-10-01T17:21:48.152Z,4.92
2023-10-01T17:24:30.825Z,4.70
2023-10-01T17:27:02.905Z,4.64
2023-10-01T17:29:33.501Z,4.49
2023-10-01T17:32:05.865Z,4.61
2023-10-01T17:34:34.913Z,4.52
2023-10-01T17:37:08.624Z,4.95
2023-10-01T17:39:37.457Z,5.02
2023-10-01T17:42:11.941Z,5.11
2023-10-01T17:44:45.801Z,4.91
2023-10-01T17:47:14.548Z,4.61
2023-10-01T17:49:49.562Z,4.80
2023-10-01T17:52:20.551Z,4.96
2023-10-01T17:54:52.025Z,5.00
2023-10-01T17:57:28.678Z,4.85
2023-10-01T18:00:13.243Z,4.97
2023-10-01T18:02:42.187Z,4.69
2023-10-01T18:05:22.989Z,4.61
2023-10-01T18:07:53.567Z,4.71
2023-10-01T18:10:43.831Z,4.44
2023-10-01T18:13:28.218Z,4.43
2023-10-01T18:15:56.846Z,4.26
2023-10-01T18:18:26.640Z,4.14
2023-10-01T18:20:56.386Z,4.11
2023-10-01T18:23:24.406Z,3.86
2023-10-01T18:25:57.247Z,4.18
2023-10-01T18:28:28.756Z,4.05
2023-10-01T18:30:57.230Z,3.74
2023-10-01T18:33:30.208Z,3.80
2023-10-01T18:35:59.395Z,3.42
2023-10-01T18:38:27.702Z,3.09
2023-10-01T18:40:55.912Z,3.24
2023-10-01T18:43:24.466Z,3.67
2023-10-01T18:45:58.119Z,3.19
2023-10-01T18:48:26.418Z,3.31
2023-10-01T18:50:58.022Z,3.30
2023-10-01T18:53:26.142Z,3.28
2023-10-01T18:55:56.231Z,3.54
2023-10-01T18:58:23.582Z,3.74
2023-10-01T19:00:53.063Z,3.74
2023-10-01T19:03:20.300Z,3.47
2023-10-01T19:05:47.047Z,3.17
2023-10-01T19:08:14.309Z,2.78
2023-10-01T19:10:46.874Z,2.64
2023-10-01T19:13:14.535Z,3.02
2023-10-01T19:15:41.400Z,3.37
2023-10-01T19:18:12.044Z,3.55
2023-10-01T19:20:40.322Z,3.43
2023-10-01T19:23:08.658Z,3.32
2023-10-01T19:25:39.375Z,3.25
2023-10-01T19:28:09.405Z,3.05
2023-10-01T19:30:38.104Z,3.22
2023-10-01T19:33:06.146Z,3.32
2023-10-01T19:35:34.959Z,3.15
2023-10-01T19:38:01.783Z,3.44
2023-10-01T19:40:35.146Z,3.36
2023-10-01T19:43:02.644Z,2.42
2023-10-01T19:45:37.677Z,1.65
2023-10-01T19:48:06.016Z,2.08
2023-10-01T19:50:38.315Z,2.51
2023-10-01T19:53:18.683Z,2.59
2023-10-01T19:55:56.188Z,2.68
2023-10-01T19:58:24.757Z,2.53
2023-10-01T20:00:51.953Z,2.36
2023-10-01T20:03:20.584Z,2.33
2023-10-01T20:05:53.309Z,2.28
2023-10-01T20:08:28.300Z,2.40
2023-10-01T20:10:57.392Z,2.88
2023-10-01T20:13:31.760Z,2.98
2023-10-01T20:16:00.502Z,2.89
2023-10-01T20:18:27.358Z,2.62
2023-10-01T20:21:00.011Z,2.23
2023-10-01T20:23:27.721Z,2.44
2023-10-01T20:25:58.696Z,2.33
2023-10-01T20:28:33.383Z,1.86
2023-10-01T20:31:01.404Z,2.03
2023-10-01T20:33:33.689Z,1.77
2023-10-01T20:36:03.654Z,1.73
2023-10-01T20:38:33.230Z,2.19
2023-10-01T20:41:25.633Z,1.98
2023-10-01T20:43:57.362Z,2.11
2023-10-01T20:46:25.079Z,2.44
2023-10-01T20:49:00.479Z,2.31
2023-10-01T20:51:34.395Z,2.01
2023-10-01T20:54:15.260Z,1.45
2023-10-01T20:56:44.605Z,1.79
2023-10-01T20:59:15.481Z,1.89
2023-10-01T21:02:00.693Z,1.63
2023-10-01T21:04:31.125Z,1.50
2023-10-01T21:07:06.660Z,1.54
2023-10-01T21:09:39.321Z,1.78
2023-10-01T21:12:14.986Z,1.80
2023-10-01T21:14:50.017Z,1.85
2023-10-01T21:17:28.480Z,1.88
2023-10-01T21:20:14.916Z,1.77
2023-10-01T21:22:44.098Z,1.64
2023-10-01T21:25:23.645Z,1.96
2023-10-01T21:27:58.431Z,1.95
2023-10-01T21:30:27.437Z,1.77
2023-10-01T21:32:59.196Z,1.51
2023-10-01T21:35:26.235Z,2.09
2023-10-01T21:37:53.006Z,1.84
2023-10-01T21:40:21.266Z,1.86
2023-10-01T21:42:51.846Z,1.67
2023-10-01T21:45:22.128Z,1.71
2023-10-01T21:47:50.300Z,1.75
2023-10-01T21:50:17.238Z,1.34
2023-10-01T21:52:44.204Z,1.31
2023-10-01T21:55:17.766Z,1.05
2023-10-01T21:57:44.806Z,1.05
2023-10-01T22:00:37.808Z,0.91
2023-10-01T22:03:07.476Z,0.72
2023-10-01T22:05:34.803Z,0.80
2023-10-01T22:08:02.157Z,0.87
2023-10-01T22:10:40.150Z,0.97
2023-10-01T22:13:14.937Z,1.10
2023-10-01T22:15:41.782Z,1.08
2023-10-01T22:18:27.568Z,1.09
2023-10-01T22:20:58.031Z,0.84
2023-10-01T22:23:31.081Z,0.81
2023-10-01T22:26:01.171Z,0.99
2023-10-01T22:28:35.658Z,0.86
2023-10-01T22:31:07.588Z,0.73
2023-10-01T22:33:38.742Z,0.92
2023-10-01T22:36:10.931Z,0.89
2023-10-01T22:38:39.024Z,0.67
2023-10-01T22:41:09.495Z,0.72
2023-10-01T22:43:38.235Z,1.09
2023-10-01T22:46:11.196Z,0.58
2023-10-01T22:48:49.544Z,0.22
2023-10-01T22:51:22.867Z,0.36
2023-10-01T22:53:50.431Z,0.61
2023-10-01T22:56:18.267Z,0.45
2023-10-01T22:58:45.604Z,0.29
2023-10-01T23:01:12.886Z,0.47
2023-10-01T23:03:41.627Z,0.50
2023-10-01T23:06:08.769Z,0.29
2023-10-01T23:08:36.230Z,0.13
2023-10-01T23:11:05.223Z,0.57
2023-10-01T23:13:35.543Z,0.38
2023-10-01T23:16:17.502Z,0.03
2023-10-01T23:18:47.056Z,0.27
2023-10-01T23:21:20.287Z,0.09
2023-10-01T23:23:47.182Z,0.45
2023-10-01T23:26:20.721Z,0.50
2023-10-01T23:29:08.042Z,0.57
2023-10-01T23:31:36.492Z,0.57
2023-10-01T23:34:03.551Z,0.62
2023-10-01T23:36:39.114Z,0.39
2023-10-01T23:39:27.193Z,0.50
2023-10-01T23:41:54.144Z,0.38
2023-10-01T23:44:25.315Z,0.23
2023-10-01T23:46:54.860Z,0.35
2023-10-01T23:49:25.893Z,0.02
2023-10-01T23:52:05.870Z,0.11
2023-10-01T23:54:47.293Z,0.21
2023-10-01T23:57:15.437Z,0.05
2023-10-01T23:59:50.154Z,0.23
